This is the latest recevied weather packets stored in our database for station/object K4DFD-13. If no packets are shown the sender has not sent any weather packets the latest 1 day(s).
| Time | Temp. | Humidity | Pressure | Rain* | Wind** | Luminosity | Snow |
|---|---|---|---|---|---|---|---|
| 1777966531 | 10.56° C | 72% | 1014.8 hPa | 0 mm | 0 m/s | - | - |
| 1777966230 | 10.56° C | 72% | 1014.7 hPa | 0 mm | 0 m/s | - | - |
| 1777965950 | 10.56° C | 73% | 1014.7 hPa | 0 mm | 0 m/s | - | - |
| 1777965637 | 10.56° C | 73% | 1014.7 hPa | 0 mm | 0 m/s | - | - |
| 1777965342 | 10.56° C | 72% | 1014.6 hPa | 0 mm | 0 m/s | - | - |
| 1777965029 | 10.56° C | 71% | 1014.6 hPa | 0 mm | 0 m/s | - | - |
| 1777964728 | 10.56° C | 71% | 1014.6 hPa | 0 mm | 0 m/s | - | - |
| 1777964428 | 11.11° C | 70% | 1014.7 hPa | 0 mm | 0 m/s | - | - |
| 1777964128 | 11.67° C | 69% | 1014.6 hPa | 0 mm | 0 m/s | - | - |
| 1777963827 | 11.67° C | 68% | 1014.6 hPa | 0 mm | 0 m/s | - | - |
| 1777963527 | 11.67° C | 67% | 1014.5 hPa | 0 mm | 0 m/s | - | - |
| 1777963247 | 12.22° C | 67% | 1014.5 hPa | 0 mm | 0 m/s | - | - |
| 1777962946 | 12.22° C | 66% | 1014.5 hPa | 0 mm | 0 m/s | - | - |
| 1777962646 | 12.78° C | 65% | 1014.5 hPa | 0 mm | 0 m/s | - | - |
| 1777962326 | 12.78° C | 64% | 1014.4 hPa | 0 mm | 0 m/s | - | - |
| 1777962025 | 13.33° C | 62% | 1014.4 hPa | 0 mm | 0 m/s | - | - |
| 1777961725 | 13.33° C | 62% | 1014.1 hPa | 0 mm | 0 m/s | - | - |
| 1777961425 | 12.78° C | 61% | 1014 hPa | 0 mm | 0.45 m/s, 214° | - | - |
| 1777961124 | 12.22° C | 64% | 1014.1 hPa | 0 mm | 0.45 m/s, 213° | - | - |
| 1777960824 | 11.67° C | 67% | 1014.4 hPa | 0 mm | 0.45 m/s, 212° | - | - |
| 1777960534 | 12.22° C | 68% | 1014.4 hPa | 0 mm | 0 m/s | - | - |
| 1777960230 | 12.22° C | 68% | 1014.4 hPa | 0 mm | 0 m/s | - | - |
| 1777959930 | 12.22° C | 66% | 1014.3 hPa | 0 mm | 0 m/s | - | - |
| 1777959624 | 12.22° C | 68% | 1014.4 hPa | 0 mm | 0 m/s | - | - |
| 1777959322 | 12.22° C | 67% | 1014.4 hPa | 0 mm | 0 m/s | - | - |
* Rain latest hour (hover to see other rain measurements)
** Current wind speed in m/s (hover to see current wind gust speed)